createdAt,value
2019-05-05T00:04:34.745Z,3.05
2019-05-05T00:14:49.491Z,2.88
2019-05-05T00:24:54.473Z,3.05
2019-05-05T00:34:57.445Z,3.26
2019-05-05T00:45:00.420Z,3.52
2019-05-05T00:55:04.616Z,3.45
2019-05-05T01:05:18.494Z,3.21
2019-05-05T01:15:21.458Z,3.25
2019-05-05T01:25:25.374Z,3.53
2019-05-05T01:35:28.738Z,3.50
2019-05-05T01:45:31.842Z,3.40
2019-05-05T01:55:34.955Z,3.64
2019-05-05T02:05:37.885Z,3.61
2019-05-05T02:15:40.868Z,3.36
2019-05-05T02:25:44.761Z,3.40
2019-05-05T02:35:47.810Z,3.62
2019-05-05T02:46:17.780Z,3.18
2019-05-05T02:56:26.260Z,3.07
2019-05-05T03:06:29.310Z,2.78
2019-05-05T03:16:36.882Z,2.73
2019-05-05T03:26:40.325Z,2.85
2019-05-05T03:36:44.231Z,2.80
2019-05-05T03:46:47.484Z,2.69
2019-05-05T03:57:06.815Z,2.61
2019-05-05T04:07:09.784Z,2.49
2019-05-05T04:17:33.521Z,2.34
2019-05-05T04:27:36.194Z,2.50
2019-05-05T04:37:39.159Z,2.52
2019-05-05T04:47:44.994Z,2.77
2019-05-05T04:57:47.958Z,2.78
2019-05-05T05:07:50.949Z,3.20
2019-05-05T05:18:04.232Z,3.56
2019-05-05T05:28:07.245Z,3.95
2019-05-05T05:38:10.281Z,4.21
2019-05-05T05:48:34.244Z,4.39
2019-05-05T05:58:37.316Z,4.86
2019-05-05T06:08:40.290Z,5.48
2019-05-05T06:18:43.772Z,6.18
2019-05-05T06:28:46.868Z,5.60
2019-05-05T06:38:49.893Z,5.49
2019-05-05T06:48:53.851Z,5.76
2019-05-05T06:58:56.955Z,5.39
2019-05-05T07:08:59.934Z,5.61
2019-05-05T07:19:04.353Z,5.81
2019-05-05T07:29:07.573Z,6.11
2019-05-05T07:39:11.120Z,5.34
2019-05-05T07:49:14.114Z,6.25
2019-05-05T07:59:17.168Z,6.62
2019-05-05T08:09:22.618Z,6.90
2019-05-05T08:19:34.707Z,7.15
2019-05-05T08:29:43.812Z,9.72
2019-05-05T08:39:49.194Z,13.73
2019-05-05T08:49:53.717Z,11.10
2019-05-05T08:59:56.934Z,9.58
2019-05-05T09:09:59.905Z,10.84
2019-05-05T09:20:04.591Z,14.42
2019-05-05T09:30:10.109Z,11.27
2019-05-05T09:40:17.056Z,10.54
2019-05-05T09:50:20.233Z,13.13
2019-05-05T10:00:24.391Z,12.59
2019-05-05T10:10:27.615Z,11.80
2019-05-05T10:20:30.619Z,10.38
2019-05-05T10:30:33.807Z,11.64
2019-05-05T10:40:36.763Z,15.39
2019-05-05T10:50:39.789Z,12.41
2019-05-05T11:00:49.632Z,11.13
2019-05-05T11:10:52.645Z,10.29
2019-05-05T11:20:55.802Z,12.57
2019-05-05T11:30:59.114Z,20.19
2019-05-05T11:41:02.208Z,18.51
2019-05-05T11:51:06.310Z,14.53
2019-05-05T12:01:11.339Z,15.79
2019-05-05T12:11:15.090Z,16.18
2019-05-05T12:21:18.285Z,11.75
2019-05-05T12:31:24.886Z,9.44
2019-05-05T12:41:28.070Z,9.48
2019-05-05T12:51:31.195Z,11.37
2019-05-05T13:01:36.933Z,12.39
2019-05-05T13:11:39.903Z,12.55
2019-05-05T13:22:01.033Z,10.11
2019-05-05T13:32:04.128Z,11.08
2019-05-05T13:42:07.133Z,12.95
2019-05-05T13:52:10.247Z,12.32
2019-05-05T14:02:13.756Z,11.06
2019-05-05T14:12:17.544Z,11.64
2019-05-05T14:22:20.547Z,12.36
2019-05-05T14:32:27.329Z,12.85
2019-05-05T14:42:30.411Z,13.11
2019-05-05T14:52:33.521Z,12.06
2019-05-05T15:02:36.586Z,10.57
2019-05-05T15:12:44.690Z,11.33
2019-05-05T15:22:47.812Z,11.26
2019-05-05T15:32:50.814Z,10.65
2019-05-05T15:42:54.456Z,11.33
2019-05-05T15:52:57.658Z,11.12
2019-05-05T16:03:00.664Z,10.02
2019-05-05T16:13:04.456Z,10.56
2019-05-05T16:23:14.431Z,9.85
2019-05-05T16:37:33.513Z,8.41
2019-05-05T16:47:39.143Z,8.88
2019-05-05T16:57:43.744Z,8.55
2019-05-05T17:07:47.010Z,8.63
2019-05-05T17:17:56.303Z,8.21
2019-05-05T17:28:01.446Z,7.24
2019-05-05T17:38:13.769Z,7.09
2019-05-05T17:48:27.131Z,6.87
2019-05-05T17:58:30.288Z,6.27
2019-05-05T18:08:45.906Z,5.44
2019-05-05T18:18:49.206Z,4.79
2019-05-05T18:28:54.114Z,4.58
2019-05-05T18:38:57.570Z,3.98
2019-05-05T18:49:00.667Z,3.64
2019-05-05T18:59:06.569Z,4.22
2019-05-05T19:09:11.032Z,3.21
2019-05-05T19:19:14.369Z,3.39
2019-05-05T19:29:17.419Z,2.41
2019-05-05T19:39:20.455Z,2.10
2019-05-05T19:49:24.197Z,1.65
2019-05-05T19:59:27.331Z,1.31
2019-05-05T20:09:30.320Z,1.04
2019-05-05T20:19:54.661Z,0.81
2019-05-05T20:29:57.764Z,0.53
2019-05-05T20:40:01.347Z,0.35
2019-05-05T20:50:04.896Z,0.31
2019-05-05T21:00:10.193Z,0.11
2019-05-05T21:10:15.292Z,0.02
2019-05-05T21:20:18.538Z,-0.11
2019-05-05T21:30:23.715Z,-0.37
2019-05-05T21:40:26.972Z,-0.46
2019-05-05T21:50:35.515Z,-0.50
2019-05-05T22:00:59.735Z,-0.66
2019-05-05T22:11:03.881Z,-0.77
2019-05-05T22:21:19.417Z,-0.68
2019-05-05T22:31:23.799Z,-0.92
2019-05-05T22:41:27.938Z,-1.00
2019-05-05T22:51:33.824Z,-0.71
2019-05-05T23:01:37.113Z,-0.76
2019-05-05T23:11:40.113Z,-1.05
2019-05-05T23:21:48.802Z,-1.27
2019-05-05T23:31:53.704Z,-1.26
2019-05-05T23:41:56.842Z,-1.44
2019-05-05T23:51:59.814Z,-1.63
